sensor_id;sensor_type;location;lat;lon;timestamp;P1;durP1;ratioP1;P2;durP2;ratioP2
14613;SDS011;7393;51.446;6.800;2023-06-22T00:00:03;5.17;;;4.50;;
14613;SDS011;7393;51.446;6.800;2023-06-22T00:02:35;5.77;;;5.07;;
14613;SDS011;7393;51.446;6.800;2023-06-22T00:05:02;6.63;;;4.77;;
14613;SDS011;7393;51.446;6.800;2023-06-22T00:07:29;7.10;;;5.33;;
14613;SDS011;7393;51.446;6.800;2023-06-22T00:09:56;5.70;;;4.93;;
14613;SDS011;7393;51.446;6.800;2023-06-22T00:12:23;7.97;;;4.43;;
14613;SDS011;7393;51.446;6.800;2023-06-22T00:14:51;5.63;;;4.33;;
14613;SDS011;7393;51.446;6.800;2023-06-22T00:17:18;5.67;;;4.50;;
14613;SDS011;7393;51.446;6.800;2023-06-22T00:19:46;8.47;;;4.43;;
14613;SDS011;7393;51.446;6.800;2023-06-22T00:22:18;7.87;;;4.53;;
14613;SDS011;7393;51.446;6.800;2023-06-22T00:24:53;4.93;;;4.30;;
14613;SDS011;7393;51.446;6.800;2023-06-22T00:27:19;5.57;;;4.93;;
14613;SDS011;7393;51.446;6.800;2023-06-22T00:29:46;6.10;;;4.57;;
14613;SDS011;7393;51.446;6.800;2023-06-22T00:32:14;5.20;;;4.27;;
14613;SDS011;7393;51.446;6.800;2023-06-22T00:34:42;5.67;;;4.33;;
14613;SDS011;7393;51.446;6.800;2023-06-22T00:37:09;7.07;;;5.00;;
14613;SDS011;7393;51.446;6.800;2023-06-22T00:39:36;8.50;;;5.37;;
14613;SDS011;7393;51.446;6.800;2023-06-22T00:42:03;7.00;;;4.87;;
14613;SDS011;7393;51.446;6.800;2023-06-22T00:44:30;5.63;;;4.93;;
14613;SDS011;7393;51.446;6.800;2023-06-22T00:46:57;5.60;;;4.27;;
14613;SDS011;7393;51.446;6.800;2023-06-22T00:49:26;7.03;;;5.53;;
14613;SDS011;7393;51.446;6.800;2023-06-22T00:51:54;5.90;;;4.83;;
14613;SDS011;7393;51.446;6.800;2023-06-22T00:54:21;7.47;;;4.97;;
14613;SDS011;7393;51.446;6.800;2023-06-22T00:56:49;7.50;;;4.70;;
14613;SDS011;7393;51.446;6.800;2023-06-22T00:59:17;7.07;;;4.90;;
14613;SDS011;7393;51.446;6.800;2023-06-22T01:01:44;7.63;;;6.07;;
14613;SDS011;7393;51.446;6.800;2023-06-22T01:04:11;6.37;;;5.50;;
14613;SDS011;7393;51.446;6.800;2023-06-22T01:06:41;5.80;;;4.03;;
14613;SDS011;7393;51.446;6.800;2023-06-22T01:09:22;10.00;;;6.10;;
14613;SDS011;7393;51.446;6.800;2023-06-22T01:11:58;5.70;;;5.20;;
14613;SDS011;7393;51.446;6.800;2023-06-22T01:14:31;6.83;;;5.20;;
14613;SDS011;7393;51.446;6.800;2023-06-22T01:17:04;10.17;;;5.27;;
14613;SDS011;7393;51.446;6.800;2023-06-22T01:19:35;7.73;;;5.13;;
14613;SDS011;7393;51.446;6.800;2023-06-22T01:22:09;6.73;;;5.23;;
14613;SDS011;7393;51.446;6.800;2023-06-22T01:24:41;7.43;;;4.90;;
14613;SDS011;7393;51.446;6.800;2023-06-22T01:27:18;5.97;;;4.33;;
14613;SDS011;7393;51.446;6.800;2023-06-22T01:29:56;8.17;;;5.70;;
14613;SDS011;7393;51.446;6.800;2023-06-22T01:32:25;8.00;;;5.43;;
14613;SDS011;7393;51.446;6.800;2023-06-22T01:34:53;6.57;;;4.67;;
14613;SDS011;7393;51.446;6.800;2023-06-22T01:37:20;6.40;;;5.20;;
14613;SDS011;7393;51.446;6.800;2023-06-22T01:39:47;7.80;;;6.70;;
14613;SDS011;7393;51.446;6.800;2023-06-22T01:42:15;8.33;;;5.40;;
14613;SDS011;7393;51.446;6.800;2023-06-22T01:44:43;7.53;;;5.77;;
14613;SDS011;7393;51.446;6.800;2023-06-22T01:47:11;7.33;;;5.67;;
14613;SDS011;7393;51.446;6.800;2023-06-22T01:49:39;6.20;;;5.17;;
14613;SDS011;7393;51.446;6.800;2023-06-22T01:52:06;5.40;;;4.80;;
14613;SDS011;7393;51.446;6.800;2023-06-22T01:54:33;7.47;;;4.60;;
14613;SDS011;7393;51.446;6.800;2023-06-22T01:57:00;6.73;;;5.03;;
14613;SDS011;7393;51.446;6.800;2023-06-22T01:59:29;8.60;;;6.13;;
14613;SDS011;7393;51.446;6.800;2023-06-22T02:02:01;8.30;;;6.30;;
14613;SDS011;7393;51.446;6.800;2023-06-22T02:04:33;8.10;;;5.40;;
14613;SDS011;7393;51.446;6.800;2023-06-22T02:07:05;7.17;;;5.30;;
14613;SDS011;7393;51.446;6.800;2023-06-22T02:09:38;11.57;;;8.03;;
14613;SDS011;7393;51.446;6.800;2023-06-22T02:12:06;6.80;;;5.20;;
14613;SDS011;7393;51.446;6.800;2023-06-22T02:14:37;7.00;;;4.97;;
14613;SDS011;7393;51.446;6.800;2023-06-22T02:17:05;7.63;;;5.67;;
14613;SDS011;7393;51.446;6.800;2023-06-22T02:19:37;7.57;;;5.50;;
14613;SDS011;7393;51.446;6.800;2023-06-22T02:22:04;8.50;;;5.40;;
14613;SDS011;7393;51.446;6.800;2023-06-22T02:24:31;5.70;;;5.20;;
14613;SDS011;7393;51.446;6.800;2023-06-22T02:26:58;6.13;;;5.50;;
14613;SDS011;7393;51.446;6.800;2023-06-22T02:29:26;8.23;;;5.73;;
14613;SDS011;7393;51.446;6.800;2023-06-22T02:31:53;11.03;;;7.10;;
14613;SDS011;7393;51.446;6.800;2023-06-22T02:34:20;11.80;;;7.93;;
14613;SDS011;7393;51.446;6.800;2023-06-22T02:36:49;7.67;;;5.90;;
14613;SDS011;7393;51.446;6.800;2023-06-22T02:39:18;10.00;;;6.93;;
14613;SDS011;7393;51.446;6.800;2023-06-22T02:41:47;8.20;;;6.20;;
14613;SDS011;7393;51.446;6.800;2023-06-22T02:44:13;9.00;;;7.07;;
14613;SDS011;7393;51.446;6.800;2023-06-22T02:46:40;7.43;;;6.07;;
14613;SDS011;7393;51.446;6.800;2023-06-22T02:49:07;8.27;;;6.47;;
14613;SDS011;7393;51.446;6.800;2023-06-22T02:51:34;10.57;;;7.37;;
14613;SDS011;7393;51.446;6.800;2023-06-22T02:54:02;8.20;;;5.67;;
14613;SDS011;7393;51.446;6.800;2023-06-22T02:56:29;9.27;;;6.53;;
14613;SDS011;7393;51.446;6.800;2023-06-22T02:58:56;7.93;;;6.30;;
14613;SDS011;7393;51.446;6.800;2023-06-22T03:01:25;8.43;;;6.10;;
14613;SDS011;7393;51.446;6.800;2023-06-22T03:03:53;8.73;;;6.43;;
14613;SDS011;7393;51.446;6.800;2023-06-22T03:06:20;6.97;;;6.37;;
14613;SDS011;7393;51.446;6.800;2023-06-22T03:08:48;8.13;;;6.30;;
14613;SDS011;7393;51.446;6.800;2023-06-22T03:11:16;8.00;;;6.73;;
14613;SDS011;7393;51.446;6.800;2023-06-22T03:13:43;8.17;;;6.43;;
14613;SDS011;7393;51.446;6.800;2023-06-22T03:16:11;8.03;;;5.50;;
14613;SDS011;7393;51.446;6.800;2023-06-22T03:18:38;8.93;;;5.47;;
14613;SDS011;7393;51.446;6.800;2023-06-22T03:21:05;9.40;;;6.30;;
14613;SDS011;7393;51.446;6.800;2023-06-22T03:23:31;8.50;;;6.40;;
14613;SDS011;7393;51.446;6.800;2023-06-22T03:25:58;8.80;;;7.23;;
14613;SDS011;7393;51.446;6.800;2023-06-22T03:28:26;8.13;;;7.23;;
14613;SDS011;7393;51.446;6.800;2023-06-22T03:30:53;11.07;;;7.57;;
14613;SDS011;7393;51.446;6.800;2023-06-22T03:33:20;9.70;;;7.33;;
14613;SDS011;7393;51.446;6.800;2023-06-22T03:35:47;7.90;;;7.10;;
14613;SDS011;7393;51.446;6.800;2023-06-22T03:38:15;9.03;;;6.53;;
14613;SDS011;7393;51.446;6.800;2023-06-22T03:40:41;9.00;;;7.10;;
14613;SDS011;7393;51.446;6.800;2023-06-22T03:43:08;8.57;;;7.00;;
14613;SDS011;7393;51.446;6.800;2023-06-22T03:45:36;7.47;;;6.63;;
14613;SDS011;7393;51.446;6.800;2023-06-22T03:48:05;7.73;;;6.47;;
14613;SDS011;7393;51.446;6.800;2023-06-22T03:50:32;9.37;;;7.90;;
14613;SDS011;7393;51.446;6.800;2023-06-22T03:52:59;12.90;;;7.97;;
14613;SDS011;7393;51.446;6.800;2023-06-22T03:55:25;7.97;;;6.67;;
14613;SDS011;7393;51.446;6.800;2023-06-22T03:57:53;9.03;;;7.80;;
14613;SDS011;7393;51.446;6.800;2023-06-22T04:00:22;9.07;;;7.17;;
14613;SDS011;7393;51.446;6.800;2023-06-22T04:02:50;9.10;;;7.30;;
14613;SDS011;7393;51.446;6.800;2023-06-22T04:05:17;8.87;;;7.17;;
14613;SDS011;7393;51.446;6.800;2023-06-22T04:07:44;11.87;;;9.33;;
14613;SDS011;7393;51.446;6.800;2023-06-22T04:10:10;9.57;;;7.10;;
14613;SDS011;7393;51.446;6.800;2023-06-22T04:12:37;8.80;;;7.90;;
14613;SDS011;7393;51.446;6.800;2023-06-22T04:15:05;9.50;;;7.80;;
14613;SDS011;7393;51.446;6.800;2023-06-22T04:17:32;8.33;;;7.53;;
14613;SDS011;7393;51.446;6.800;2023-06-22T04:20:00;8.20;;;7.27;;
14613;SDS011;7393;51.446;6.800;2023-06-22T04:22:29;8.23;;;7.43;;
14613;SDS011;7393;51.446;6.800;2023-06-22T04:24:56;11.60;;;8.50;;
14613;SDS011;7393;51.446;6.800;2023-06-22T04:27:22;9.27;;;8.33;;
14613;SDS011;7393;51.446;6.800;2023-06-22T04:29:49;9.73;;;8.13;;
14613;SDS011;7393;51.446;6.800;2023-06-22T04:32:16;8.97;;;7.70;;
14613;SDS011;7393;51.446;6.800;2023-06-22T04:34:43;10.23;;;8.70;;
14613;SDS011;7393;51.446;6.800;2023-06-22T04:37:11;12.43;;;10.13;;
14613;SDS011;7393;51.446;6.800;2023-06-22T04:39:40;11.13;;;9.17;;
14613;SDS011;7393;51.446;6.800;2023-06-22T04:42:07;10.57;;;9.47;;
14613;SDS011;7393;51.446;6.800;2023-06-22T04:44:34;12.07;;;9.13;;
14613;SDS011;7393;51.446;6.800;2023-06-22T04:47:01;12.97;;;10.10;;
14613;SDS011;7393;51.446;6.800;2023-06-22T04:49:31;12.37;;;10.20;;
14613;SDS011;7393;51.446;6.800;2023-06-22T04:51:59;9.77;;;8.77;;
14613;SDS011;7393;51.446;6.800;2023-06-22T04:54:28;13.97;;;9.00;;
14613;SDS011;7393;51.446;6.800;2023-06-22T04:56:57;14.93;;;10.80;;
14613;SDS011;7393;51.446;6.800;2023-06-22T04:59:24;11.43;;;10.10;;
14613;SDS011;7393;51.446;6.800;2023-06-22T05:01:54;11.63;;;9.47;;
14613;SDS011;7393;51.446;6.800;2023-06-22T05:04:21;10.47;;;9.37;;
14613;SDS011;7393;51.446;6.800;2023-06-22T05:06:49;11.33;;;9.40;;
14613;SDS011;7393;51.446;6.800;2023-06-22T05:09:16;12.03;;;10.67;;
14613;SDS011;7393;51.446;6.800;2023-06-22T05:11:44;13.13;;;10.27;;
14613;SDS011;7393;51.446;6.800;2023-06-22T05:14:11;9.37;;;8.43;;
14613;SDS011;7393;51.446;6.800;2023-06-22T05:16:39;10.47;;;9.37;;
14613;SDS011;7393;51.446;6.800;2023-06-22T05:19:07;12.83;;;9.37;;
14613;SDS011;7393;51.446;6.800;2023-06-22T05:21:34;10.73;;;9.27;;
14613;SDS011;7393;51.446;6.800;2023-06-22T05:24:00;10.77;;;9.50;;
14613;SDS011;7393;51.446;6.800;2023-06-22T05:26:28;12.27;;;9.37;;
14613;SDS011;7393;51.446;6.800;2023-06-22T05:28:56;12.30;;;9.37;;
14613;SDS011;7393;51.446;6.800;2023-06-22T05:31:23;10.80;;;9.30;;
14613;SDS011;7393;51.446;6.800;2023-06-22T05:33:51;11.03;;;9.60;;
14613;SDS011;7393;51.446;6.800;2023-06-22T05:36:19;11.63;;;9.10;;
14613;SDS011;7393;51.446;6.800;2023-06-22T05:38:48;15.23;;;9.07;;
14613;SDS011;7393;51.446;6.800;2023-06-22T05:41:15;13.67;;;9.73;;
14613;SDS011;7393;51.446;6.800;2023-06-22T05:43:42;11.47;;;9.43;;
14613;SDS011;7393;51.446;6.800;2023-06-22T05:46:10;13.07;;;9.17;;
14613;SDS011;7393;51.446;6.800;2023-06-22T05:48:37;18.30;;;12.07;;
14613;SDS011;7393;51.446;6.800;2023-06-22T05:51:04;10.83;;;9.67;;
14613;SDS011;7393;51.446;6.800;2023-06-22T05:53:30;15.10;;;10.60;;
14613;SDS011;7393;51.446;6.800;2023-06-22T05:55:57;12.17;;;9.43;;
14613;SDS011;7393;51.446;6.800;2023-06-22T05:58:24;14.47;;;10.93;;
14613;SDS011;7393;51.446;6.800;2023-06-22T06:00:51;13.73;;;12.30;;
14613;SDS011;7393;51.446;6.800;2023-06-22T06:03:19;13.40;;;10.50;;
14613;SDS011;7393;51.446;6.800;2023-06-22T06:05:46;13.60;;;10.73;;
14613;SDS011;7393;51.446;6.800;2023-06-22T06:08:12;14.20;;;11.60;;
14613;SDS011;7393;51.446;6.800;2023-06-22T06:10:39;13.70;;;10.83;;
14613;SDS011;7393;51.446;6.800;2023-06-22T06:13:06;15.40;;;11.37;;
14613;SDS011;7393;51.446;6.800;2023-06-22T06:15:33;13.00;;;10.90;;
14613;SDS011;7393;51.446;6.800;2023-06-22T06:18:00;12.27;;;10.63;;
14613;SDS011;7393;51.446;6.800;2023-06-22T06:20:31;12.87;;;11.37;;
14613;SDS011;7393;51.446;6.800;2023-06-22T06:22:58;13.60;;;11.67;;
14613;SDS011;7393;51.446;6.800;2023-06-22T06:25:25;15.73;;;12.50;;
14613;SDS011;7393;51.446;6.800;2023-06-22T06:27:52;12.97;;;11.37;;
14613;SDS011;7393;51.446;6.800;2023-06-22T06:30:20;11.17;;;10.07;;
14613;SDS011;7393;51.446;6.800;2023-06-22T06:32:47;14.90;;;13.30;;
14613;SDS011;7393;51.446;6.800;2023-06-22T06:35:15;18.47;;;13.23;;
14613;SDS011;7393;51.446;6.800;2023-06-22T06:37:44;14.47;;;12.97;;
14613;SDS011;7393;51.446;6.800;2023-06-22T06:40:12;15.50;;;13.97;;
14613;SDS011;7393;51.446;6.800;2023-06-22T06:42:39;14.97;;;13.47;;
14613;SDS011;7393;51.446;6.800;2023-06-22T06:45:09;16.70;;;14.30;;
14613;SDS011;7393;51.446;6.800;2023-06-22T06:47:36;19.33;;;14.47;;
14613;SDS011;7393;51.446;6.800;2023-06-22T06:50:04;17.17;;;14.87;;
14613;SDS011;7393;51.446;6.800;2023-06-22T06:52:32;17.57;;;13.50;;
14613;SDS011;7393;51.446;6.800;2023-06-22T06:55:00;15.50;;;13.53;;
14613;SDS011;7393;51.446;6.800;2023-06-22T06:57:28;14.57;;;13.07;;
14613;SDS011;7393;51.446;6.800;2023-06-22T06:59:55;18.27;;;13.67;;
14613;SDS011;7393;51.446;6.800;2023-06-22T07:02:22;15.93;;;12.80;;
14613;SDS011;7393;51.446;6.800;2023-06-22T07:04:49;17.77;;;14.70;;
14613;SDS011;7393;51.446;6.800;2023-06-22T07:07:16;17.70;;;14.10;;
14613;SDS011;7393;51.446;6.800;2023-06-22T07:09:42;15.20;;;12.53;;
14613;SDS011;7393;51.446;6.800;2023-06-22T07:12:11;18.23;;;14.90;;
14613;SDS011;7393;51.446;6.800;2023-06-22T07:14:37;17.87;;;13.93;;
14613;SDS011;7393;51.446;6.800;2023-06-22T07:17:04;17.63;;;13.27;;
14613;SDS011;7393;51.446;6.800;2023-06-22T07:19:32;16.83;;;13.97;;
14613;SDS011;7393;51.446;6.800;2023-06-22T07:21:59;16.47;;;13.80;;
14613;SDS011;7393;51.446;6.800;2023-06-22T07:24:26;16.70;;;14.37;;
14613;SDS011;7393;51.446;6.800;2023-06-22T07:26:53;17.47;;;13.17;;
14613;SDS011;7393;51.446;6.800;2023-06-22T07:29:25;14.03;;;12.50;;
14613;SDS011;7393;51.446;6.800;2023-06-22T07:31:52;16.90;;;14.03;;
14613;SDS011;7393;51.446;6.800;2023-06-22T07:34:21;16.90;;;13.43;;
14613;SDS011;7393;51.446;6.800;2023-06-22T07:36:48;14.73;;;12.43;;
14613;SDS011;7393;51.446;6.800;2023-06-22T07:39:15;16.03;;;13.97;;
14613;SDS011;7393;51.446;6.800;2023-06-22T07:41:41;15.57;;;13.17;;
14613;SDS011;7393;51.446;6.800;2023-06-22T07:44:08;20.87;;;16.10;;
14613;SDS011;7393;51.446;6.800;2023-06-22T07:46:36;16.77;;;13.57;;
14613;SDS011;7393;51.446;6.800;2023-06-22T07:49:03;15.53;;;13.87;;
14613;SDS011;7393;51.446;6.800;2023-06-22T07:51:30;18.23;;;15.53;;
14613;SDS011;7393;51.446;6.800;2023-06-22T07:53:57;15.20;;;12.93;;
14613;SDS011;7393;51.446;6.800;2023-06-22T07:56:23;15.70;;;14.10;;
14613;SDS011;7393;51.446;6.800;2023-06-22T07:58:50;18.27;;;14.97;;
14613;SDS011;7393;51.446;6.800;2023-06-22T08:01:18;17.00;;;14.50;;
14613;SDS011;7393;51.446;6.800;2023-06-22T08:03:47;14.63;;;13.00;;
14613;SDS011;7393;51.446;6.800;2023-06-22T08:06:14;17.93;;;14.73;;
14613;SDS011;7393;51.446;6.800;2023-06-22T08:08:41;16.67;;;14.97;;
14613;SDS011;7393;51.446;6.800;2023-06-22T08:11:08;16.70;;;14.83;;
14613;SDS011;7393;51.446;6.800;2023-06-22T08:13:35;17.30;;;15.53;;
14613;SDS011;7393;51.446;6.800;2023-06-22T08:16:02;21.37;;;14.13;;
14613;SDS011;7393;51.446;6.800;2023-06-22T08:18:29;16.57;;;14.87;;
14613;SDS011;7393;51.446;6.800;2023-06-22T08:20:57;16.87;;;15.07;;
14613;SDS011;7393;51.446;6.800;2023-06-22T08:23:24;17.77;;;14.83;;
14613;SDS011;7393;51.446;6.800;2023-06-22T08:25:51;17.17;;;15.03;;
14613;SDS011;7393;51.446;6.800;2023-06-22T08:28:18;17.07;;;15.27;;
14613;SDS011;7393;51.446;6.800;2023-06-22T08:30:45;17.17;;;15.23;;
14613;SDS011;7393;51.446;6.800;2023-06-22T08:33:12;18.73;;;14.43;;
14613;SDS011;7393;51.446;6.800;2023-06-22T08:35:38;18.47;;;16.53;;
14613;SDS011;7393;51.446;6.800;2023-06-22T08:38:07;17.57;;;15.03;;
14613;SDS011;7393;51.446;6.800;2023-06-22T08:40:34;17.20;;;15.43;;
14613;SDS011;7393;51.446;6.800;2023-06-22T08:43:00;16.97;;;14.70;;
14613;SDS011;7393;51.446;6.800;2023-06-22T08:45:27;16.93;;;14.73;;
14613;SDS011;7393;51.446;6.800;2023-06-22T08:47:54;17.83;;;15.93;;
14613;SDS011;7393;51.446;6.800;2023-06-22T08:50:21;16.57;;;14.87;;
14613;SDS011;7393;51.446;6.800;2023-06-22T08:52:48;19.70;;;15.73;;
14613;SDS011;7393;51.446;6.800;2023-06-22T08:55:16;17.83;;;15.93;;
14613;SDS011;7393;51.446;6.800;2023-06-22T08:57:43;19.10;;;16.63;;
14613;SDS011;7393;51.446;6.800;2023-06-22T09:00:10;19.00;;;16.00;;
14613;SDS011;7393;51.446;6.800;2023-06-22T09:02:42;17.00;;;14.90;;
14613;SDS011;7393;51.446;6.800;2023-06-22T09:05:09;20.43;;;15.83;;
14613;SDS011;7393;51.446;6.800;2023-06-22T09:07:36;18.80;;;15.97;;
14613;SDS011;7393;51.446;6.800;2023-06-22T09:10:03;17.17;;;15.37;;
14613;SDS011;7393;51.446;6.800;2023-06-22T09:12:32;18.60;;;16.67;;
14613;SDS011;7393;51.446;6.800;2023-06-22T09:14:59;18.13;;;16.30;;
14613;SDS011;7393;51.446;6.800;2023-06-22T09:17:27;20.10;;;14.83;;
14613;SDS011;7393;51.446;6.800;2023-06-22T09:19:54;17.00;;;15.30;;
14613;SDS011;7393;51.446;6.800;2023-06-22T09:22:21;17.60;;;15.07;;
14613;SDS011;7393;51.446;6.800;2023-06-22T09:24:48;17.50;;;15.17;;
14613;SDS011;7393;51.446;6.800;2023-06-22T09:27:14;16.57;;;14.70;;
14613;SDS011;7393;51.446;6.800;2023-06-22T09:29:43;17.47;;;15.63;;
14613;SDS011;7393;51.446;6.800;2023-06-22T09:32:10;19.23;;;15.50;;
14613;SDS011;7393;51.446;6.800;2023-06-22T09:34:37;15.13;;;12.83;;
14613;SDS011;7393;51.446;6.800;2023-06-22T09:37:04;18.20;;;15.30;;
14613;SDS011;7393;51.446;6.800;2023-06-22T09:39:31;17.50;;;15.03;;
14613;SDS011;7393;51.446;6.800;2023-06-22T09:41:59;16.67;;;14.50;;
14613;SDS011;7393;51.446;6.800;2023-06-22T09:44:26;17.03;;;15.33;;
14613;SDS011;7393;51.446;6.800;2023-06-22T09:46:54;18.00;;;16.20;;
14613;SDS011;7393;51.446;6.800;2023-06-22T09:49:21;17.73;;;15.87;;
14613;SDS011;7393;51.446;6.800;2023-06-22T09:51:47;17.50;;;15.73;;
14613;SDS011;7393;51.446;6.800;2023-06-22T09:54:16;16.70;;;14.80;;
14613;SDS011;7393;51.446;6.800;2023-06-22T09:56:42;17.23;;;15.43;;
14613;SDS011;7393;51.446;6.800;2023-06-22T09:59:09;18.23;;;15.30;;
14613;SDS011;7393;51.446;6.800;2023-06-22T10:01:36;16.83;;;14.57;;
14613;SDS011;7393;51.446;6.800;2023-06-22T10:04:04;19.03;;;16.60;;
14613;SDS011;7393;51.446;6.800;2023-06-22T10:06:31;22.13;;;16.20;;
14613;SDS011;7393;51.446;6.800;2023-06-22T10:08:58;16.23;;;14.00;;
14613;SDS011;7393;51.446;6.800;2023-06-22T10:11:24;17.17;;;13.33;;
14613;SDS011;7393;51.446;6.800;2023-06-22T10:13:55;15.23;;;13.73;;
14613;SDS011;7393;51.446;6.800;2023-06-22T10:16:23;15.13;;;13.37;;
14613;SDS011;7393;51.446;6.800;2023-06-22T10:18:51;18.97;;;14.60;;
14613;SDS011;7393;51.446;6.800;2023-06-22T10:21:20;15.40;;;14.00;;
14613;SDS011;7393;51.446;6.800;2023-06-22T10:23:46;16.57;;;13.17;;
14613;SDS011;7393;51.446;6.800;2023-06-22T10:26:13;16.57;;;14.87;;
14613;SDS011;7393;51.446;6.800;2023-06-22T10:28:40;16.07;;;13.90;;
14613;SDS011;7393;51.446;6.800;2023-06-22T10:31:07;13.03;;;11.73;;
14613;SDS011;7393;51.446;6.800;2023-06-22T10:33:33;18.10;;;12.53;;
14613;SDS011;7393;51.446;6.800;2023-06-22T10:36:00;15.13;;;11.80;;
14613;SDS011;7393;51.446;6.800;2023-06-22T10:38:28;14.30;;;11.00;;
14613;SDS011;7393;51.446;6.800;2023-06-22T10:40:55;12.20;;;11.00;;
14613;SDS011;7393;51.446;6.800;2023-06-22T10:43:22;13.60;;;12.17;;
14613;SDS011;7393;51.446;6.800;2023-06-22T10:45:49;14.40;;;12.53;;
14613;SDS011;7393;51.446;6.800;2023-06-22T10:48:15;13.20;;;11.80;;
14613;SDS011;7393;51.446;6.800;2023-06-22T10:50:42;12.47;;;11.30;;
14613;SDS011;7393;51.446;6.800;2023-06-22T10:53:09;12.37;;;11.17;;
14613;SDS011;7393;51.446;6.800;2023-06-22T10:55:37;12.97;;;11.67;;
14613;SDS011;7393;51.446;6.800;2023-06-22T10:58:04;11.33;;;10.13;;
14613;SDS011;7393;51.446;6.800;2023-06-22T11:00:31;11.43;;;10.23;;
14613;SDS011;7393;51.446;6.800;2023-06-22T11:02:57;13.27;;;11.23;;
14613;SDS011;7393;51.446;6.800;2023-06-22T11:05:24;11.80;;;10.60;;
14613;SDS011;7393;51.446;6.800;2023-06-22T11:07:51;10.83;;;9.83;;
14613;SDS011;7393;51.446;6.800;2023-06-22T11:10:18;12.87;;;10.27;;
14613;SDS011;7393;51.446;6.800;2023-06-22T11:12:46;10.33;;;9.33;;
14613;SDS011;7393;51.446;6.800;2023-06-22T11:15:13;11.43;;;10.40;;
14613;SDS011;7393;51.446;6.800;2023-06-22T11:17:39;10.50;;;9.50;;
14613;SDS011;7393;51.446;6.800;2023-06-22T11:20:07;12.50;;;9.95;;
14613;SDS011;7393;51.446;6.800;2023-06-22T11:22:36;12.67;;;10.57;;
14613;SDS011;7393;51.446;6.800;2023-06-22T11:25:04;11.67;;;9.33;;
14613;SDS011;7393;51.446;6.800;2023-06-22T11:27:32;11.30;;;10.10;;
14613;SDS011;7393;51.446;6.800;2023-06-22T11:30:00;11.65;;;10.50;;
14613;SDS011;7393;51.446;6.800;2023-06-22T11:32:27;10.17;;;9.27;;
14613;SDS011;7393;51.446;6.800;2023-06-22T11:34:53;9.93;;;9.03;;
14613;SDS011;7393;51.446;6.800;2023-06-22T11:37:20;10.50;;;9.50;;
14613;SDS011;7393;51.446;6.800;2023-06-22T11:39:47;11.53;;;10.43;;
14613;SDS011;7393;51.446;6.800;2023-06-22T11:42:14;13.27;;;10.97;;
14613;SDS011;7393;51.446;6.800;2023-06-22T11:44:41;15.10;;;13.50;;
14613;SDS011;7393;51.446;6.800;2023-06-22T11:47:09;13.23;;;11.53;;
14613;SDS011;7393;51.446;6.800;2023-06-22T11:49:36;19.30;;;13.03;;
14613;SDS011;7393;51.446;6.800;2023-06-22T11:52:03;18.53;;;14.43;;
14613;SDS011;7393;51.446;6.800;2023-06-22T11:54:30;16.03;;;14.33;;
14613;SDS011;7393;51.446;6.800;2023-06-22T11:56:57;15.70;;;12.97;;
14613;SDS011;7393;51.446;6.800;2023-06-22T11:59:24;17.90;;;15.13;;
14613;SDS011;7393;51.446;6.800;2023-06-22T12:01:51;18.33;;;16.33;;
14613;SDS011;7393;51.446;6.800;2023-06-22T12:04:19;16.93;;;15.17;;
14613;SDS011;7393;51.446;6.800;2023-06-22T12:06:45;16.50;;;14.90;;
14613;SDS011;7393;51.446;6.800;2023-06-22T12:09:13;18.40;;;16.47;;
14613;SDS011;7393;51.446;6.800;2023-06-22T12:11:40;17.57;;;15.70;;
14613;SDS011;7393;51.446;6.800;2023-06-22T12:14:07;20.70;;;18.50;;
14613;SDS011;7393;51.446;6.800;2023-06-22T12:16:33;17.17;;;14.63;;
14613;SDS011;7393;51.446;6.800;2023-06-22T12:19:00;21.17;;;17.83;;
14613;SDS011;7393;51.446;6.800;2023-06-22T12:21:28;18.40;;;16.23;;
14613;SDS011;7393;51.446;6.800;2023-06-22T12:23:55;19.87;;;17.80;;
14613;SDS011;7393;51.446;6.800;2023-06-22T12:26:22;16.87;;;14.70;;
14613;SDS011;7393;51.446;6.800;2023-06-22T12:28:49;21.40;;;17.97;;
14613;SDS011;7393;51.446;6.800;2023-06-22T12:31:17;21.03;;;17.43;;
14613;SDS011;7393;51.446;6.800;2023-06-22T12:33:43;21.13;;;17.60;;
14613;SDS011;7393;51.446;6.800;2023-06-22T12:36:10;20.73;;;18.17;;
14613;SDS011;7393;51.446;6.800;2023-06-22T12:38:38;21.13;;;18.83;;
14613;SDS011;7393;51.446;6.800;2023-06-22T12:41:05;24.83;;;20.70;;
14613;SDS011;7393;51.446;6.800;2023-06-22T12:43:32;20.07;;;17.97;;
14613;SDS011;7393;51.446;6.800;2023-06-22T12:45:59;22.50;;;20.27;;
14613;SDS011;7393;51.446;6.800;2023-06-22T12:48:26;19.87;;;17.87;;
14613;SDS011;7393;51.446;6.800;2023-06-22T12:50:53;22.43;;;20.17;;
14613;SDS011;7393;51.446;6.800;2023-06-22T12:53:20;23.63;;;21.33;;
14613;SDS011;7393;51.446;6.800;2023-06-22T12:55:49;25.57;;;22.87;;
14613;SDS011;7393;51.446;6.800;2023-06-22T12:58:15;21.63;;;19.47;;
14613;SDS011;7393;51.446;6.800;2023-06-22T13:00:43;22.40;;;19.87;;
14613;SDS011;7393;51.446;6.800;2023-06-22T13:03:09;25.67;;;23.03;;
14613;SDS011;7393;51.446;6.800;2023-06-22T13:05:36;24.27;;;21.70;;
14613;SDS011;7393;51.446;6.800;2023-06-22T13:08:03;26.43;;;23.43;;
14613;SDS011;7393;51.446;6.800;2023-06-22T13:10:30;22.93;;;19.73;;
14613;SDS011;7393;51.446;6.800;2023-06-22T13:12:58;24.83;;;22.33;;
14613;SDS011;7393;51.446;6.800;2023-06-22T13:15:26;23.63;;;21.23;;
14613;SDS011;7393;51.446;6.800;2023-06-22T13:17:53;25.80;;;22.73;;
14613;SDS011;7393;51.446;6.800;2023-06-22T13:20:21;24.60;;;22.10;;
14613;SDS011;7393;51.446;6.800;2023-06-22T13:22:48;23.43;;;20.90;;
14613;SDS011;7393;51.446;6.800;2023-06-22T13:25:15;24.23;;;21.73;;
14613;SDS011;7393;51.446;6.800;2023-06-22T13:27:44;21.90;;;19.70;;
14613;SDS011;7393;51.446;6.800;2023-06-22T13:30:12;23.97;;;21.43;;
14613;SDS011;7393;51.446;6.800;2023-06-22T13:32:39;23.87;;;21.57;;
14613;SDS011;7393;51.446;6.800;2023-06-22T13:35:08;24.20;;;21.73;;
14613;SDS011;7393;51.446;6.800;2023-06-22T13:37:35;26.10;;;23.30;;
14613;SDS011;7393;51.446;6.800;2023-06-22T13:40:02;25.07;;;22.60;;
14613;SDS011;7393;51.446;6.800;2023-06-22T13:42:31;25.07;;;22.50;;
14613;SDS011;7393;51.446;6.800;2023-06-22T13:44:58;23.77;;;21.33;;
14613;SDS011;7393;51.446;6.800;2023-06-22T13:47:26;26.50;;;23.57;;
14613;SDS011;7393;51.446;6.800;2023-06-22T13:49:53;27.67;;;23.90;;
14613;SDS011;7393;51.446;6.800;2023-06-22T13:52:20;25.97;;;22.50;;
14613;SDS011;7393;51.446;6.800;2023-06-22T13:54:47;26.73;;;23.73;;
14613;SDS011;7393;51.446;6.800;2023-06-22T13:57:14;29.27;;;26.20;;
14613;SDS011;7393;51.446;6.800;2023-06-22T13:59:41;26.40;;;23.80;;
14613;SDS011;7393;51.446;6.800;2023-06-22T14:02:07;24.10;;;21.70;;
14613;SDS011;7393;51.446;6.800;2023-06-22T14:04:36;25.87;;;23.23;;
14613;SDS011;7393;51.446;6.800;2023-06-22T14:07:03;25.70;;;23.17;;
14613;SDS011;7393;51.446;6.800;2023-06-22T14:09:30;25.53;;;23.00;;
14613;SDS011;7393;51.446;6.800;2023-06-22T14:11:57;25.97;;;23.33;;
14613;SDS011;7393;51.446;6.800;2023-06-22T14:14:24;26.87;;;24.07;;
14613;SDS011;7393;51.446;6.800;2023-06-22T14:16:51;25.67;;;22.77;;
14613;SDS011;7393;51.446;6.800;2023-06-22T14:19:18;26.03;;;23.23;;
14613;SDS011;7393;51.446;6.800;2023-06-22T14:21:46;24.67;;;22.27;;
14613;SDS011;7393;51.446;6.800;2023-06-22T14:24:13;27.17;;;24.37;;
14613;SDS011;7393;51.446;6.800;2023-06-22T14:26:40;26.33;;;23.73;;
14613;SDS011;7393;51.446;6.800;2023-06-22T14:29:07;27.50;;;24.60;;
14613;SDS011;7393;51.446;6.800;2023-06-22T14:31:34;26.80;;;24.10;;
14613;SDS011;7393;51.446;6.800;2023-06-22T14:34:00;24.67;;;22.20;;
14613;SDS011;7393;51.446;6.800;2023-06-22T14:36:28;25.83;;;23.13;;
14613;SDS011;7393;51.446;6.800;2023-06-22T14:38:56;25.97;;;23.37;;
14613;SDS011;7393;51.446;6.800;2023-06-22T14:41:23;22.67;;;20.47;;
14613;SDS011;7393;51.446;6.800;2023-06-22T14:43:50;24.93;;;22.47;;